Time;durP1;ratioP1;P1;durP2;ratioP2;P2;SDS_P1;SDS_P2;PMS_P1;PMS_P2;Temp;Humidity;BMP_temperature;BMP_pressure;BME280_temperature;BME280_humidity;BME280_pressure;Samples;Min_cycle;Max_cycle;Signal;HPM_P1;HPM_P2
2023/12/01 00:01:23;;;;;;;;;;;;;;;5.81;68.86;98444.78;4419205;32;34372;-75
2023/12/01 00:03:50;;;;;;;;;;;;;;;5.95;68.62;98447.91;4413187;32;34156;-76
2023/12/01 00:06:18;;;;;;;;;;;;;;;5.96;68.59;98449.72;4420008;32;34237;-75
2023/12/01 00:08:45;;;;;;;;;;;;;;;6.01;68.67;98454.22;4413015;32;34005;-75
2023/12/01 00:11:12;;;;;;;;;;;;;;;6.19;67.95;98458.38;4419007;32;34130;-75
2023/12/01 00:13:40;;;;;;;;;;;;;;;6.07;68.34;98454.47;4415746;32;33881;-75
2023/12/01 00:16:07;;;;;;;;;;;;;;;6.34;67.35;98453.84;4416853;32;33902;-75
2023/12/01 00:18:34;;;;;;;;;;;;;;;6.19;67.69;98443.81;4415911;32;34616;-75
2023/12/01 00:21:02;;;;;;;;;;;;;;;5.88;68.76;98446.78;4416749;32;34711;-75
2023/12/01 00:23:30;;;;;;;;;;;;;;;5.82;68.91;98451.69;4418521;32;33504;-75
2023/12/01 00:25:58;;;;;;;;;;;;;;;6.00;68.52;98457.59;4412764;32;33779;-75
2023/12/01 00:28:25;;;;;;;;;;;;;;;5.97;68.56;98474.59;4408963;32;33836;-74
2023/12/01 00:30:52;;;;;;;;;;;;;;;6.24;68.02;98474.88;4420056;32;34830;-75
2023/12/01 00:33:20;;;;;;;;;;;;;;;6.23;67.81;98485.94;4407046;32;34031;-75
2023/12/01 00:35:47;;;;;;;;;;;;;;;6.21;67.82;98467.88;4418711;32;35394;-74
2023/12/01 00:38:15;;;;;;;;;;;;;;;6.01;68.17;98474.78;4419446;32;32792;-75
2023/12/01 00:40:43;;;;;;;;;;;;;;;6.02;68.45;98473.09;4418077;32;35072;-75
2023/12/01 00:43:10;;;;;;;;;;;;;;;6.04;68.51;98474.03;4412195;32;34135;-76
2023/12/01 00:45:37;;;;;;;;;;;;;;;5.93;68.51;98481.28;4414838;32;33836;-75
2023/12/01 00:48:05;;;;;;;;;;;;;;;5.98;68.58;98495.22;4417456;32;33975;-76
2023/12/01 00:50:32;;;;;;;;;;;;;;;6.01;68.50;98504.78;4416762;32;34762;-75
2023/12/01 00:53:00;;;;;;;;;;;;;;;6.03;68.53;98508.28;4407089;32;32977;-76
2023/12/01 00:55:27;;;;;;;;;;;;;;;6.07;68.42;98508.47;4417306;32;34630;-74
2023/12/01 00:57:55;;;;;;;;;;;;;;;6.07;68.03;98498.19;4404825;32;34181;-75
2023/12/01 01:00:23;;;;;;;;;;;;;;;5.75;68.90;98506.19;4407929;32;34801;-75
2023/12/01 01:02:50;;;;;;;;;;;;;;;5.54;69.47;98507.00;4413460;32;34095;-75
2023/12/01 01:05:18;;;;;;;;;;;;;;;5.74;69.18;98494.13;4417722;32;33861;-75
2023/12/01 01:07:45;;;;;;;;;;;;;;;5.66;69.23;98492.16;4416311;32;33936;-75
2023/12/01 01:10:12;;;;;;;;;;;;;;;5.66;69.37;98492.16;4415022;32;34704;-74
2023/12/01 01:12:40;;;;;;;;;;;;;;;5.78;68.96;98494.34;4419363;32;33955;-75
2023/12/01 01:15:07;;;;;;;;;;;;;;;5.84;68.88;98496.31;4414256;32;34004;-75
2023/12/01 01:17:35;;;;;;;;;;;;;;;5.71;69.57;98495.78;4419131;32;33820;-75
2023/12/01 01:20:03;;;;;;;;;;;;;;;5.85;69.36;98498.06;4417492;32;34622;-74
2023/12/01 01:22:31;;;;;;;;;;;;;;;6.09;68.27;98488.84;4410362;32;33262;-75
2023/12/01 01:24:58;;;;;;;;;;;;;;;6.12;68.15;98476.91;4413837;32;33138;-75
2023/12/01 01:27:26;;;;;;;;;;;;;;;6.03;68.58;98480.00;4412334;32;34977;-76
2023/12/01 01:29:53;;;;;;;;;;;;;;;5.94;68.97;98488.16;4416922;32;34619;-75
2023/12/01 01:32:21;;;;;;;;;;;;;;;6.12;68.80;98497.50;4415909;32;34094;-75
2023/12/01 01:34:48;;;;;;;;;;;;;;;6.01;69.03;98500.50;4414728;32;33977;-74
2023/12/01 01:37:15;;;;;;;;;;;;;;;6.09;68.85;98499.13;4418127;32;34828;-75
2023/12/01 01:39:42;;;;;;;;;;;;;;;6.11;68.59;98494.03;4417561;32;35094;-75
2023/12/01 01:42:10;;;;;;;;;;;;;;;5.98;68.92;98494.34;4415019;32;34379;-75
2023/12/01 01:44:37;;;;;;;;;;;;;;;6.24;68.29;98496.31;4398411;32;33312;-75
2023/12/01 01:47:05;;;;;;;;;;;;;;;6.28;67.64;98494.75;4405089;32;32460;-75
2023/12/01 01:49:34;;;;;;;;;;;;;;;6.22;68.02;98495.38;4406544;32;34269;-75
2023/12/01 01:52:01;;;;;;;;;;;;;;;6.07;68.55;98508.47;4413294;32;34174;-74
2023/12/01 01:54:29;;;;;;;;;;;;;;;6.03;68.90;98501.44;4398122;32;33944;-75
2023/12/01 01:56:57;;;;;;;;;;;;;;;6.04;68.54;98495.47;4418756;32;34240;-74
2023/12/01 01:59:24;;;;;;;;;;;;;;;6.03;68.91;98493.72;4417861;32;34021;-74
2023/12/01 02:01:51;;;;;;;;;;;;;;;6.08;68.86;98505.09;4418022;32;33845;-74
2023/12/01 02:04:19;;;;;;;;;;;;;;;6.08;68.83;98511.91;4410721;32;34587;-74
2023/12/01 02:06:46;;;;;;;;;;;;;;;6.18;68.61;98508.03;4405052;32;34954;-74
2023/12/01 02:09:14;;;;;;;;;;;;;;;6.12;68.79;98507.78;4416523;32;34719;-75
2023/12/01 02:11:42;;;;;;;;;;;;;;;6.24;68.47;98495.44;4398555;32;31177;-74
2023/12/01 02:14:09;;;;;;;;;;;;;;;6.19;68.57;98489.22;4406746;32;33998;-74
2023/12/01 02:16:45;;;;;;;;;;;;;;;6.19;68.59;98499.50;4417813;32;34165;-74
2023/12/01 02:19:13;;;;;;;;;;;;;;;6.34;68.13;98505.28;4409814;32;33486;-75
2023/12/01 02:21:47;;;;;;;;;;;;;;;6.16;68.50;98515.69;4411679;32;33827;-75
2023/12/01 02:24:15;;;;;;;;;;;;;;;6.30;68.13;98513.69;4420427;32;34928;-75
2023/12/01 02:26:42;;;;;;;;;;;;;;;6.14;68.60;98503.56;4415032;32;33871;-74
2023/12/01 02:29:09;;;;;;;;;;;;;;;6.23;68.59;98491.09;4414680;32;34101;-75
2023/12/01 02:31:37;;;;;;;;;;;;;;;6.21;68.49;98490.16;4405812;32;34363;-75
2023/12/01 02:34:04;;;;;;;;;;;;;;;6.17;68.88;98485.72;4419074;32;34252;-74
2023/12/01 02:36:31;;;;;;;;;;;;;;;6.12;69.06;98490.66;4389077;32;33374;-75
2023/12/01 02:38:59;;;;;;;;;;;;;;;6.08;68.88;98496.47;4417569;32;33983;-74
2023/12/01 02:41:26;;;;;;;;;;;;;;;6.05;68.94;98494.66;4412908;32;33424;-74
2023/12/01 02:43:54;;;;;;;;;;;;;;;6.06;69.04;98490.41;4417473;32;33949;-75
2023/12/01 02:46:22;;;;;;;;;;;;;;;6.15;68.93;98498.50;4421016;32;34231;-75
2023/12/01 02:48:51;;;;;;;;;;;;;;;6.27;68.59;98505.84;4419429;32;34503;-74
2023/12/01 02:51:18;;;;;;;;;;;;;;;6.18;68.68;98502.88;4407570;32;33520;-75
2023/12/01 02:53:46;;;;;;;;;;;;;;;6.08;69.07;98512.81;4420947;32;34036;-75
2023/12/01 02:56:13;;;;;;;;;;;;;;;6.09;69.07;98511.97;4409445;32;33999;-74
2023/12/01 02:58:40;;;;;;;;;;;;;;;6.31;68.28;98500.00;4419692;32;33852;-75
2023/12/01 03:01:08;;;;;;;;;;;;;;;6.39;67.46;98490.88;4413904;32;32835;-74
2023/12/01 03:03:35;;;;;;;;;;;;;;;6.38;67.77;98496.88;4421875;32;34041;-75
2023/12/01 03:06:03;;;;;;;;;;;;;;;6.29;68.15;98512.78;4409407;32;34308;-74
2023/12/01 03:08:31;;;;;;;;;;;;;;;6.36;68.16;98513.94;4405293;32;34398;-75
2023/12/01 03:10:58;;;;;;;;;;;;;;;6.25;68.40;98504.91;4409500;32;33121;-76
2023/12/01 03:13:26;;;;;;;;;;;;;;;6.24;68.58;98505.72;4411880;32;33945;-74
2023/12/01 03:15:54;;;;;;;;;;;;;;;6.19;68.70;98496.94;4409240;32;33876;-75
2023/12/01 03:18:21;;;;;;;;;;;;;;;6.33;68.26;98508.66;4417387;32;34538;-75
2023/12/01 03:20:50;;;;;;;;;;;;;;;6.35;68.28;98512.16;4412922;32;33268;-75
2023/12/01 03:23:17;;;;;;;;;;;;;;;6.50;67.58;98524.78;4407347;32;34594;-75
2023/12/01 03:25:45;;;;;;;;;;;;;;;6.37;67.94;98513.09;4416677;32;33702;-74
2023/12/01 03:28:12;;;;;;;;;;;;;;;6.27;68.42;98508.41;4421294;32;33921;-75
2023/12/01 03:30:39;;;;;;;;;;;;;;;6.29;68.11;98509.34;4420766;32;33390;-75
2023/12/01 03:33:07;;;;;;;;;;;;;;;6.30;68.22;98508.53;4414819;32;34804;-75
2023/12/01 03:35:34;;;;;;;;;;;;;;;6.21;68.33;98515.88;4422030;32;34902;-75
2023/12/01 03:38:01;;;;;;;;;;;;;;;6.41;67.67;98516.66;4419904;32;33934;-74
2023/12/01 03:40:29;;;;;;;;;;;;;;;6.18;68.43;98514.06;4413126;32;33265;-75
2023/12/01 03:42:56;;;;;;;;;;;;;;;6.18;68.48;98518.31;4411325;32;34123;-74
2023/12/01 03:45:24;;;;;;;;;;;;;;;6.19;68.51;98520.94;4419999;32;33618;-75
2023/12/01 03:47:51;;;;;;;;;;;;;;;6.14;68.81;98511.28;4412566;32;33996;-75
2023/12/01 03:50:19;;;;;;;;;;;;;;;6.19;68.78;98514.94;4412814;32;34051;-75
2023/12/01 03:52:49;;;;;;;;;;;;;;;6.27;68.76;98516.13;4400419;32;34231;-75
2023/12/01 03:55:16;;;;;;;;;;;;;;;6.15;68.89;98513.94;4421508;32;33863;-75
2023/12/01 03:57:43;;;;;;;;;;;;;;;6.13;68.91;98509.53;4421563;32;33474;-75
2023/12/01 04:00:13;;;;;;;;;;;;;;;6.22;68.96;98502.19;4419879;32;33186;-74
2023/12/01 04:02:42;;;;;;;;;;;;;;;6.38;67.67;98491.72;4420198;32;33603;-74
2023/12/01 04:05:17;;;;;;;;;;;;;;;6.35;67.98;98490.72;4419878;32;34216;-75
2023/12/01 04:07:51;;;;;;;;;;;;;;;6.10;68.51;98490.59;4412791;32;34406;-75
2023/12/01 04:10:23;;;;;;;;;;;;;;;6.24;68.52;98492.87;4410663;32;33346;-75
2023/12/01 04:12:51;;;;;;;;;;;;;;;6.24;68.39;98487.72;4402272;32;34960;-75
2023/12/01 04:15:19;;;;;;;;;;;;;;;6.27;68.20;98492.97;4412464;32;34923;-75
2023/12/01 04:17:47;;;;;;;;;;;;;;;6.29;68.28;98501.63;4418761;32;34105;-74
2023/12/01 04:20:21;;;;;;;;;;;;;;;6.15;68.81;98507.91;4410838;32;34115;-75
2023/12/01 04:22:53;;;;;;;;;;;;;;;6.28;68.65;98487.91;4414404;32;34217;-74
2023/12/01 04:25:20;;;;;;;;;;;;;;;6.26;68.32;98480.94;4418779;32;34104;-75
2023/12/01 04:27:48;;;;;;;;;;;;;;;6.19;68.42;98484.06;4393235;32;33160;-75
2023/12/01 04:30:16;;;;;;;;;;;;;;;6.08;68.78;98489.66;4394941;32;33513;-74
2023/12/01 04:32:44;;;;;;;;;;;;;;;6.14;68.63;98495.84;4408178;32;34235;-75
2023/12/01 04:35:12;;;;;;;;;;;;;;;6.28;68.25;98505.03;4416960;32;34715;-75
2023/12/01 04:37:40;;;;;;;;;;;;;;;6.27;68.21;98500.69;4416851;32;34200;-74
2023/12/01 04:40:14;;;;;;;;;;;;;;;6.18;68.25;98493.50;4415842;32;33178;-75
2023/12/01 04:42:44;;;;;;;;;;;;;;;6.13;68.62;98494.13;4414470;32;33875;-75
2023/12/01 04:45:12;;;;;;;;;;;;;;;6.28;68.04;98495.62;4415544;32;33957;-75
2023/12/01 04:47:40;;;;;;;;;;;;;;;6.30;67.64;98496.56;4413943;32;34097;-75
2023/12/01 04:50:12;;;;;;;;;;;;;;;6.16;68.17;98492.56;4419592;32;33448;-75
2023/12/01 04:52:43;;;;;;;;;;;;;;;6.27;67.85;98496.41;4409720;32;34650;-75
2023/12/01 04:55:14;;;;;;;;;;;;;;;6.23;67.74;98485.94;4410412;32;34346;-75
2023/12/01 04:57:42;;;;;;;;;;;;;;;6.03;68.27;98501.44;4413253;32;34192;-75
2023/12/01 05:00:22;;;;;;;;;;;;;;;6.13;68.08;98486.41;4420896;32;32047;-75
2023/12/01 05:02:56;;;;;;;;;;;;;;;6.10;68.08;98490.59;4417264;32;34833;-75
2023/12/01 05:05:24;;;;;;;;;;;;;;;6.15;67.72;98487.34;4416577;32;34651;-75
2023/12/01 05:07:52;;;;;;;;;;;;;;;6.18;67.67;98487.44;4415691;32;34088;-75
2023/12/01 05:10:20;;;;;;;;;;;;;;;6.19;67.54;98481.50;4413204;32;34130;-75
2023/12/01 05:12:49;;;;;;;;;;;;;;;6.10;67.66;98480.31;4409851;32;34906;-75
2023/12/01 05:15:18;;;;;;;;;;;;;;;6.01;67.87;98495.34;4410596;32;34105;-75
2023/12/01 05:17:46;;;;;;;;;;;;;;;5.96;68.42;98486.56;4416900;32;34656;-75
2023/12/01 05:20:17;;;;;;;;;;;;;;;6.04;68.26;98495.47;4398237;32;33547;-75
2023/12/01 05:22:46;;;;;;;;;;;;;;;5.97;68.73;98483.19;4409209;32;34618;-75
2023/12/01 05:25:13;;;;;;;;;;;;;;;5.83;69.44;98489.41;4413304;32;34015;-75
2023/12/01 05:27:50;;;;;;;;;;;;;;;5.85;69.21;98510.91;4420100;32;34142;-75
2023/12/01 05:30:19;;;;;;;;;;;;;;;5.72;69.44;98512.97;4405090;32;33500;-75
2023/12/01 05:32:47;;;;;;;;;;;;;;;5.72;70.11;98507.81;4413683;32;34014;-74
2023/12/01 05:35:15;;;;;;;;;;;;;;;5.96;69.25;98501.13;4416565;32;34214;-75
2023/12/01 05:37:47;;;;;;;;;;;;;;;6.00;69.10;98503.88;4408106;32;35054;-77
2023/12/01 05:40:15;;;;;;;;;;;;;;;6.01;71.90;98510.78;4419746;32;33196;-75
2023/12/01 05:42:43;;;;;;;;;;;;;;;5.96;71.92;98499.41;4412428;32;33956;-75
2023/12/01 05:45:11;;;;;;;;;;;;;;;5.97;71.37;98508.91;4415020;32;34203;-74
2023/12/01 05:47:42;;;;;;;;;;;;;;;6.06;70.88;98508.41;4419248;32;34911;-75
2023/12/01 05:50:12;;;;;;;;;;;;;;;6.18;70.18;98503.78;4410210;32;33663;-75
2023/12/01 05:52:41;;;;;;;;;;;;;;;6.08;70.20;98501.63;4390707;32;35050;-75
2023/12/01 05:55:14;;;;;;;;;;;;;;;6.08;70.07;98502.53;4395628;32;33788;-76
2023/12/01 05:57:45;;;;;;;;;;;;;;;6.10;69.90;98507.69;4412004;32;34140;-75
2023/12/01 06:00:15;;;;;;;;;;;;;;;6.02;69.97;98515.09;4410968;32;33884;-75
2023/12/01 06:02:44;;;;;;;;;;;;;;;6.09;69.99;98519.69;4420794;32;34014;-75
2023/12/01 06:05:12;;;;;;;;;;;;;;;5.99;69.86;98520.13;4410505;32;34814;-75
2023/12/01 06:07:41;;;;;;;;;;;;;;;6.10;69.66;98521.47;4414858;32;33794;-75
2023/12/01 06:10:12;;;;;;;;;;;;;;;5.97;69.91;98514.03;4419503;32;33919;-75
2023/12/01 06:12:39;;;;;;;;;;;;;;;6.18;69.24;98516.63;4419930;32;33051;-74
2023/12/01 06:15:09;;;;;;;;;;;;;;;6.16;69.50;98525.06;4407139;32;32664;-74
2023/12/01 06:17:37;;;;;;;;;;;;;;;6.10;69.56;98521.47;4413934;32;34077;-75
2023/12/01 06:20:05;;;;;;;;;;;;;;;5.97;70.02;98516.63;4410488;32;33358;-75
2023/12/01 06:22:32;;;;;;;;;;;;;;;6.04;69.89;98528.88;4419374;32;34152;-74
2023/12/01 06:25:01;;;;;;;;;;;;;;;6.12;69.50;98529.22;4414865;32;34568;-74
2023/12/01 06:27:28;;;;;;;;;;;;;;;6.07;69.23;98541.00;4398653;32;33822;-74
2023/12/01 06:29:55;;;;;;;;;;;;;;;6.36;68.22;98523.34;4393320;32;33074;-75
2023/12/01 06:32:24;;;;;;;;;;;;;;;6.18;68.80;98524.34;4410489;32;34594;-74
2023/12/01 06:34:51;;;;;;;;;;;;;;;6.13;68.74;98514.69;4419665;32;34149;-74
2023/12/01 06:37:20;;;;;;;;;;;;;;;6.27;68.37;98534.12;4420295;32;33356;-76
2023/12/01 06:39:47;;;;;;;;;;;;;;;6.29;68.38;98523.06;4418537;32;34682;-74
2023/12/01 06:42:15;;;;;;;;;;;;;;;6.18;68.80;98539.78;4418107;32;33666;-75
2023/12/01 06:44:42;;;;;;;;;;;;;;;6.18;69.11;98528.59;4414726;32;34264;-74
2023/12/01 06:47:09;;;;;;;;;;;;;;;6.19;68.90;98536.38;4415815;32;34908;-73
2023/12/01 06:49:36;;;;;;;;;;;;;;;6.28;68.87;98530.75;4415613;32;33544;-76
2023/12/01 06:52:04;;;;;;;;;;;;;;;6.33;68.79;98518.06;4420917;32;34923;-75
2023/12/01 06:54:31;;;;;;;;;;;;;;;6.24;68.78;98528.88;4412099;32;34178;-74
2023/12/01 06:56:58;;;;;;;;;;;;;;;6.21;69.04;98528.72;4418237;32;34065;-75
2023/12/01 06:59:26;;;;;;;;;;;;;;;6.27;68.94;98536.69;4412772;32;33970;-75
2023/12/01 07:01:53;;;;;;;;;;;;;;;6.25;69.17;98535.75;4415758;32;33880;-74
2023/12/01 07:04:20;;;;;;;;;;;;;;;6.34;68.80;98528.41;4412035;32;34113;-75
2023/12/01 07:06:48;;;;;;;;;;;;;;;6.32;68.71;98527.47;4411840;32;34400;-75
2023/12/01 07:09:17;;;;;;;;;;;;;;;6.26;68.98;98537.53;4417486;32;33112;-76
2023/12/01 07:11:45;;;;;;;;;;;;;;;6.27;68.95;98546.97;4402397;32;34177;-75
2023/12/01 07:14:13;;;;;;;;;;;;;;;6.25;68.96;98553.75;4420084;32;33883;-75
2023/12/01 07:16:41;;;;;;;;;;;;;;;6.32;68.76;98560.91;4408059;32;34020;-76
2023/12/01 07:19:08;;;;;;;;;;;;;;;6.06;69.81;98573.53;4418256;32;33092;-74
2023/12/01 07:21:36;;;;;;;;;;;;;;;6.09;69.79;98547.97;4418573;32;34061;-75
2023/12/01 07:24:06;;;;;;;;;;;;;;;6.18;69.30;98560.34;4414620;32;33889;-76
2023/12/01 07:26:34;;;;;;;;;;;;;;;6.32;69.17;98576.34;4413324;32;34400;-74
2023/12/01 07:29:04;;;;;;;;;;;;;;;6.55;67.62;98536.13;4407662;32;33249;-73
2023/12/01 07:31:33;;;;;;;;;;;;;;;6.27;68.22;98546.97;4421604;32;33911;-74
2023/12/01 07:34:01;;;;;;;;;;;;;;;6.23;68.93;98535.69;4422577;32;34393;-75
2023/12/01 07:36:29;;;;;;;;;;;;;;;6.11;69.54;98530.03;4413393;32;33581;-76
2023/12/01 07:39:07;;;;;;;;;;;;;;;6.29;68.70;98535.06;4422336;32;33780;-76
2023/12/01 07:41:36;;;;;;;;;;;;;;;6.13;69.70;98545.53;4417533;32;34880;-76
2023/12/01 07:44:03;;;;;;;;;;;;;;;6.29;69.43;98550.50;4396749;32;33853;-76
2023/12/01 07:46:32;;;;;;;;;;;;;;;6.13;69.85;98545.53;4411929;32;34756;-74
2023/12/01 07:48:59;;;;;;;;;;;;;;;6.17;69.87;98542.28;4417055;32;33090;-74
2023/12/01 07:51:36;;;;;;;;;;;;;;;6.25;69.57;98546.03;4417243;32;34210;-75
2023/12/01 07:54:04;;;;;;;;;;;;;;;6.30;69.61;98550.56;4414808;32;33664;-76
2023/12/01 07:56:31;;;;;;;;;;;;;;;6.43;69.31;98559.66;4416377;32;33887;-75
2023/12/01 07:58:58;;;;;;;;;;;;;;;6.39;69.25;98570.63;4414992;32;32474;-75
2023/12/01 08:01:25;;;;;;;;;;;;;;;6.53;68.83;98548.06;4420181;32;33738;-74
2023/12/01 08:03:53;;;;;;;;;;;;;;;6.39;69.27;98568.03;4411283;32;34575;-74
2023/12/01 08:06:20;;;;;;;;;;;;;;;6.54;68.98;98538.63;4417297;32;34161;-75
2023/12/01 08:08:48;;;;;;;;;;;;;;;6.42;69.26;98581.03;4415545;32;33452;-74
2023/12/01 08:11:16;;;;;;;;;;;;;;;6.58;69.19;98568.81;4415782;32;34954;-74
2023/12/01 08:13:43;;;;;;;;;;;;;;;6.57;68.72;98585.09;4411682;32;34279;-74
2023/12/01 08:16:10;;;;;;;;;;;;;;;6.72;68.75;98572.81;4421015;32;34865;-75
2023/12/01 08:18:40;;;;;;;;;;;;;;;6.65;68.56;98552.81;4412553;32;33895;-74
2023/12/01 08:21:08;;;;;;;;;;;;;;;6.22;70.31;98576.75;4412629;32;33358;-75
2023/12/01 08:23:36;;;;;;;;;;;;;;;6.52;70.06;98545.41;4417691;32;33904;-74
2023/12/01 08:26:04;;;;;;;;;;;;;;;6.39;70.32;98560.31;4419344;32;34261;-75
2023/12/01 08:28:31;;;;;;;;;;;;;;;6.43;70.34;98572.53;4414316;32;33384;-73
2023/12/01 08:30:59;;;;;;;;;;;;;;;6.40;70.55;98567.25;4415874;32;34741;-74
2023/12/01 08:33:26;;;;;;;;;;;;;;;6.64;70.34;98571.62;4413607;32;34055;-74
2023/12/01 08:35:54;;;;;;;;;;;;;;;6.64;70.23;98561.34;4420766;32;33895;-75
2023/12/01 08:38:21;;;;;;;;;;;;;;;6.77;70.12;98563.59;4418331;32;34121;-74
2023/12/01 08:40:49;;;;;;;;;;;;;;;6.81;69.66;98573.19;4414212;32;34002;-73
2023/12/01 08:43:21;;;;;;;;;;;;;;;6.81;69.74;98578.34;4418940;32;34156;-75
2023/12/01 08:45:49;;;;;;;;;;;;;;;6.80;69.47;98570.53;4407666;32;33902;-75
2023/12/01 08:48:17;;;;;;;;;;;;;;;6.67;70.19;98572.62;4413211;32;33379;-73
2023/12/01 08:50:46;;;;;;;;;;;;;;;6.66;70.37;98567.41;4417828;32;34029;-75
2023/12/01 08:53:14;;;;;;;;;;;;;;;6.71;70.21;98562.47;4400333;32;34837;-74
2023/12/01 08:55:41;;;;;;;;;;;;;;;6.86;70.03;98566.53;4407967;32;34810;-72
2023/12/01 08:58:08;;;;;;;;;;;;;;;6.91;70.02;98569.28;4415115;32;33335;-74
2023/12/01 09:00:36;;;;;;;;;;;;;;;6.88;70.04;98567.47;4410514;32;34127;-75
2023/12/01 09:03:03;;;;;;;;;;;;;;;6.86;70.16;98573.38;4412882;32;33801;-74
2023/12/01 09:05:32;;;;;;;;;;;;;;;6.95;70.09;98578.00;4414785;32;35053;-74
2023/12/01 09:08:04;;;;;;;;;;;;;;;7.28;68.33;98576.75;4417025;32;34265;-73
2023/12/01 09:10:32;;;;;;;;;;;;;;;6.97;69.66;98589.22;4410297;32;34747;-74
2023/12/01 09:12:59;;;;;;;;;;;;;;;6.93;69.76;98580.50;4405996;32;34389;-74
2023/12/01 09:15:27;;;;;;;;;;;;;;;7.16;68.59;98576.25;4417238;32;33705;-75
2023/12/01 09:17:55;;;;;;;;;;;;;;;7.03;69.14;98581.75;4396027;32;34024;-74
2023/12/01 09:20:22;;;;;;;;;;;;;;;7.05;68.40;98575.87;4421706;32;33969;-75
2023/12/01 09:22:50;;;;;;;;;;;;;;;6.93;68.96;98574.50;4417473;32;33988;-73
2023/12/01 09:25:17;;;;;;;;;;;;;;;6.99;68.77;98569.56;4415851;32;34886;-75
2023/12/01 09:27:45;;;;;;;;;;;;;;;6.97;68.56;98571.22;4399027;32;33130;-75
2023/12/01 09:30:16;;;;;;;;;;;;;;;6.94;67.98;98568.53;4394229;32;33506;-75
2023/12/01 09:32:45;;;;;;;;;;;;;;;6.86;68.25;98574.25;4412562;32;34208;-74
2023/12/01 09:35:15;;;;;;;;;;;;;;;6.85;68.15;98559.63;4401037;32;32742;-75
2023/12/01 09:38:02;;;;;;;;;;;;;;;6.78;68.64;98560.22;4420507;32;33967;-73
2023/12/01 09:40:31;;;;;;;;;;;;;;;6.91;67.85;98565.84;4419257;32;34200;-74
2023/12/01 09:42:59;;;;;;;;;;;;;;;6.71;68.63;98567.63;4405456;32;33845;-74
2023/12/01 09:45:27;;;;;;;;;;;;;;;6.77;68.25;98570.44;4421828;32;34291;-75
2023/12/01 09:47:57;;;;;;;;;;;;;;;6.77;68.15;98561.00;4417965;32;33484;-73
2023/12/01 09:50:25;;;;;;;;;;;;;;;6.71;68.39;98553.06;4410382;32;34905;-75
2023/12/01 09:52:52;;;;;;;;;;;;;;;6.61;68.85;98535.50;4408159;32;34256;-74
2023/12/01 09:55:20;;;;;;;;;;;;;;;6.58;68.44;98515.66;4404477;32;34106;-75
2023/12/01 09:57:47;;;;;;;;;;;;;;;6.67;68.22;98510.88;4419345;32;33065;-74
2023/12/01 10:00:15;;;;;;;;;;;;;;;6.43;68.85;98521.09;4405025;32;34168;-74
2023/12/01 10:02:42;;;;;;;;;;;;;;;6.50;68.88;98527.34;4413081;32;33919;-75
2023/12/01 10:05:13;;;;;;;;;;;;;;;6.47;69.24;98527.19;4415162;32;34113;-74
2023/12/01 10:07:41;;;;;;;;;;;;;;;6.44;69.22;98533.12;4406203;32;33917;-74
2023/12/01 10:10:35;;;;;;;;;;;;;;;6.38;69.71;98540.59;4418375;32;34764;-73
2023/12/01 10:13:07;;;;;;;;;;;;;;;6.31;69.93;98533.44;4409386;32;35003;-74
2023/12/01 10:15:38;;;;;;;;;;;;;;;6.54;69.40;98523.19;4416916;32;34017;-74
2023/12/01 10:18:15;;;;;;;;;;;;;;;6.48;69.56;98514.41;4399698;32;33949;-74
2023/12/01 10:21:07;;;;;;;;;;;;;;;6.55;69.39;98514.66;4413190;32;34855;-74
2023/12/01 10:23:36;;;;;;;;;;;;;;;6.61;69.35;98514.91;4416613;32;33975;-74
2023/12/01 10:26:04;;;;;;;;;;;;;;;6.64;69.30;98515.88;4415455;32;33823;-73
2023/12/01 10:28:39;;;;;;;;;;;;;;;6.64;69.38;98494.44;4416587;32;33865;-74
2023/12/01 10:31:07;;;;;;;;;;;;;;;6.47;69.82;98501.47;4418668;32;34134;-74
2023/12/01 10:33:35;;;;;;;;;;;;;;;6.52;69.83;98496.53;4401887;32;34544;-74
2023/12/01 10:36:07;;;;;;;;;;;;;;;6.59;69.67;98501.13;4413346;32;34856;-74
2023/12/01 10:38:36;;;;;;;;;;;;;;;6.71;69.54;98517.03;4403261;32;33114;-72
2023/12/01 10:41:04;;;;;;;;;;;;;;;6.53;69.97;98495.72;4401224;32;32453;-74
2023/12/01 10:43:32;;;;;;;;;;;;;;;6.63;69.70;98497.84;4402172;32;34259;-74
2023/12/01 10:46:01;;;;;;;;;;;;;;;6.71;69.26;98496.44;4400931;32;34741;-73
2023/12/01 10:48:28;;;;;;;;;;;;;;;6.62;69.50;98480.62;4413991;32;33496;-74
2023/12/01 10:50:56;;;;;;;;;;;;;;;6.72;69.46;98485.31;4414207;32;34320;-74
2023/12/01 10:53:25;;;;;;;;;;;;;;;6.69;69.51;98491.22;4411353;32;33871;-74
2023/12/01 10:55:53;;;;;;;;;;;;;;;6.69;69.47;98492.94;4396481;32;34760;-73
2023/12/01 10:58:21;;;;;;;;;;;;;;;6.71;69.45;98491.28;4388379;32;33802;-74
2023/12/01 11:00:49;;;;;;;;;;;;;;;6.49;70.26;98495.59;4399456;32;32170;-74
2023/12/01 11:03:20;;;;;;;;;;;;;;;6.64;69.50;98484.16;4409112;32;33879;-73
2023/12/01 11:05:52;;;;;;;;;;;;;;;6.46;71.09;98480.03;4407088;32;34207;-73
2023/12/01 11:08:45;;;;;;;;;;;;;;;6.55;70.50;98468.34;4398550;32;33033;-74
2023/12/01 11:11:31;;;;;;;;;;;;;;;6.65;70.05;98463.63;4374255;32;33966;-74
2023/12/01 11:14:05;;;;;;;;;;;;;;;6.54;70.28;98456.31;4389107;32;33696;-73
2023/12/01 11:16:33;;;;;;;;;;;;;;;6.67;70.28;98461.13;4393142;32;34000;-74
2023/12/01 11:19:00;;;;;;;;;;;;;;;6.34;70.71;98474.41;4399780;32;33356;-75
2023/12/01 11:21:28;;;;;;;;;;;;;;;6.37;71.04;98468.50;4398497;32;34027;-74
2023/12/01 11:24:14;;;;;;;;;;;;;;;6.55;70.53;98455.47;4399785;32;33718;-73
2023/12/01 11:26:41;;;;;;;;;;;;;;;6.55;70.68;98460.63;4401033;32;34091;-76
2023/12/01 11:29:18;;;;;;;;;;;;;;;6.79;70.18;98468.44;4400819;32;33121;-76
2023/12/01 11:31:52;;;;;;;;;;;;;;;6.77;70.00;98458.06;4400467;32;33942;-76
2023/12/01 11:34:25;;;;;;;;;;;;;;;6.59;70.56;98462.53;4405897;32;33745;-75
2023/12/01 11:36:54;;;;;;;;;;;;;;;6.68;70.21;98460.28;4408257;32;34291;-74
2023/12/01 11:39:27;;;;;;;;;;;;;;;6.74;69.92;98465.69;4394103;32;33307;-76
2023/12/01 11:41:58;;;;;;;;;;;;;;;6.89;69.56;98467.94;4401209;32;33115;-76
2023/12/01 11:44:29;;;;;;;;;;;;;;;6.87;69.72;98477.31;4412201;32;32655;-76
2023/12/01 11:46:57;;;;;;;;;;;;;;;6.75;70.02;98462.28;4402146;32;34070;-76
2023/12/01 11:49:32;;;;;;;;;;;;;;;6.73;70.07;98463.91;4388008;32;33510;-75
2023/12/01 11:52:00;;;;;;;;;;;;;;;6.87;69.80;98462.72;4388959;32;34484;-75
2023/12/01 11:54:32;;;;;;;;;;;;;;;6.83;69.86;98460.87;4399359;32;35391;-75
2023/12/01 11:57:00;;;;;;;;;;;;;;;6.86;69.93;98454.97;4399569;32;34878;-76
2023/12/01 11:59:29;;;;;;;;;;;;;;;6.96;69.64;98461.34;4395087;32;33485;-76
2023/12/01 12:01:56;;;;;;;;;;;;;;;6.89;70.02;98462.81;4393430;32;34864;-75
2023/12/01 12:04:24;;;;;;;;;;;;;;;6.93;70.03;98450.94;4393422;32;33612;-75
2023/12/01 12:06:52;;;;;;;;;;;;;;;7.29;76.40;98447.13;4402057;32;33539;-75
2023/12/01 12:09:19;;;;;;;;;;;;;;;7.26;74.77;98447.03;4418714;32;32958;-76
2023/12/01 12:11:48;;;;;;;;;;;;;;;7.22;74.21;98464.88;4399052;32;34260;-75
2023/12/01 12:14:16;;;;;;;;;;;;;;;7.23;73.31;98451.19;4404205;32;34050;-75
2023/12/01 12:16:44;;;;;;;;;;;;;;;7.39;71.76;98444.88;4398584;32;33662;-75
2023/12/01 12:19:11;;;;;;;;;;;;;;;7.32;71.95;98442.91;4404083;32;33241;-75
2023/12/01 12:21:39;;;;;;;;;;;;;;;7.24;72.04;98433.22;4398175;32;33652;-76
2023/12/01 12:24:06;;;;;;;;;;;;;;;7.27;71.83;98438.47;4403854;32;33996;-76
2023/12/01 12:26:34;;;;;;;;;;;;;;;7.34;71.58;98433.53;4397694;32;34229;-76
2023/12/01 12:29:03;;;;;;;;;;;;;;;7.28;71.56;98427.34;4399643;32;33059;-76
2023/12/01 12:31:30;;;;;;;;;;;;;;;7.25;71.66;98424.66;4387322;32;34468;-76
2023/12/01 12:33:58;;;;;;;;;;;;;;;7.23;71.56;98421.16;4401810;32;33540;-75
2023/12/01 12:36:26;;;;;;;;;;;;;;;7.25;71.11;98439.25;4399993;32;34226;-76
2023/12/01 12:38:54;;;;;;;;;;;;;;;7.11;71.64;98441.31;4390690;32;33900;-75
2023/12/01 12:41:25;;;;;;;;;;;;;;;7.14;71.40;98435.41;4400647;32;34323;-74
2023/12/01 12:43:56;;;;;;;;;;;;;;;7.23;72.13;98434.03;4400811;32;34155;-75
2023/12/01 12:46:24;;;;;;;;;;;;;;;7.27;71.70;98430.72;4400007;32;34206;-76
2023/12/01 12:48:56;;;;;;;;;;;;;;;7.27;71.43;98433.31;4402688;32;33295;-76
2023/12/01 12:51:24;;;;;;;;;;;;;;;7.05;71.56;98430.78;4401339;32;33652;-77
2023/12/01 12:53:53;;;;;;;;;;;;;;;7.12;71.95;98437.91;4378478;32;32529;-74
2023/12/01 12:56:21;;;;;;;;;;;;;;;6.99;71.76;98435.69;4397112;32;33979;-76
2023/12/01 12:58:53;;;;;;;;;;;;;;;7.21;71.07;98448.56;4397665;32;32921;-75
2023/12/01 13:01:22;;;;;;;;;;;;;;;7.32;70.18;98419.72;4388102;32;33440;-75
2023/12/01 13:03:50;;;;;;;;;;;;;;;7.24;70.01;98417.78;4397303;32;34153;-76
2023/12/01 13:06:20;;;;;;;;;;;;;;;7.05;70.45;98423.03;4398546;32;34008;-76